Terminal Aerodrome Forecast
Issued by NWS Corpus Christi, TX

Home | Current Version | Previous Version | Text Only | Print | Product List | Glossary On
Versions: 1 2 3 4 5 6 7 8 9 10 11 12 13 14 15 16 17 18
432
FTUS44 KCRP 231732
TAFVCT
TAF
KVCT 231732Z 2318/2418 16015G22KT P6SM SKC
     FM240100 15009KT P6SM FEW025
     FM240700 17005KT 2SM BR FEW008
     FM240900 VRB04KT 1/2SM FG VV002
     FM241430 26005KT 4SM BR BKN005
     FM241530 30009KT P6SM SKC=

USA.gov is the U.S. government's official web portal to all federal, state and local government web resources and services.